Time,TemperatureF,DewpointF,PressureIn,WindDirection,WindDirectionDegrees,WindSpeedMPH,WindSpeedGustMPH,Humidity,HourlyPrecipIn,Conditions,Clouds,dailyrainin,SoftwareType,DateUTC
2013-08-13 00:06:00,71.7,71.0,29.93,SSE,168,0.0,1.0,97,0.00,,,0.02,weatherlink.com 1.10,2013-08-13 04:06:00,
2013-08-13 00:21:00,71.5,71.0,29.92,SSE,168,0.0,0.0,97,0.00,,,0.02,weatherlink.com 1.10,2013-08-13 04:21:00,
2013-08-13 00:36:00,71.4,71.0,29.92,SSE,168,0.0,1.0,97,0.00,,,0.02,weatherlink.com 1.10,2013-08-13 04:36:00,
2013-08-13 00:51:00,71.2,70.0,29.91,SSE,168,0.0,0.0,97,0.00,,,0.02,weatherlink.com 1.10,2013-08-13 04:51:00,
2013-08-13 01:07:00,70.8,70.0,29.91,SSE,168,0.0,1.0,97,0.00,,,0.02,weatherlink.com 1.10,2013-08-13 05:07:00,
2013-08-13 01:22:00,70.5,70.0,29.91,SSE,168,0.0,0.0,98,0.00,,,0.02,weatherlink.com 1.10,2013-08-13 05:22:00,
2013-08-13 01:37:00,70.6,70.0,29.91,NE,51,2.0,3.0,98,0.00,,,0.02,weatherlink.com 1.10,2013-08-13 05:37:00,
2013-08-13 01:52:00,70.1,69.0,29.90,NE,51,0.0,1.0,97,0.00,,,0.02,weatherlink.com 1.10,2013-08-13 05:52:00,
2013-08-13 02:07:00,70.0,69.0,29.89,NE,52,0.0,2.0,98,0.00,,,0.02,weatherlink.com 1.10,2013-08-13 06:07:00,
2013-08-13 02:22:00,69.7,69.0,29.90,ESE,109,1.0,3.0,98,0.00,,,0.02,weatherlink.com 1.10,2013-08-13 06:22:00,
2013-08-13 02:37:00,69.9,70.0,29.89,ENE,65,1.0,2.0,99,0.00,,,0.02,weatherlink.com 1.10,2013-08-13 06:37:00,
2013-08-13 02:52:00,70.0,70.0,29.89,ENE,65,0.0,1.0,99,0.00,,,0.02,weatherlink.com 1.10,2013-08-13 06:52:00,
2013-08-13 03:07:00,70.1,70.0,29.89,ENE,65,0.0,1.0,99,0.00,,,0.02,weatherlink.com 1.10,2013-08-13 07:07:00,
2013-08-13 03:22:00,70.1,70.0,29.89,ENE,65,0.0,0.0,99,0.00,,,0.02,weatherlink.com 1.10,2013-08-13 07:22:00,
2013-08-13 03:37:00,70.1,70.0,29.88,ESE,109,0.0,3.0,99,0.00,,,0.02,weatherlink.com 1.10,2013-08-13 07:37:00,
2013-08-13 03:52:00,70.2,70.0,29.88,ESE,109,1.0,2.0,99,0.00,,,0.02,weatherlink.com 1.10,2013-08-13 07:52:00,
2013-08-13 04:07:00,70.3,70.0,29.88,ESE,109,0.0,2.0,99,0.00,,,0.02,weatherlink.com 1.10,2013-08-13 08:07:00,
2013-08-13 04:22:00,70.2,70.0,29.88,SW,215,1.0,3.0,99,0.00,,,0.02,weatherlink.com 1.10,2013-08-13 08:22:00,
2013-08-13 04:37:00,70.1,70.0,29.87,SW,215,0.0,0.0,99,0.00,,,0.00,weatherlink.com 1.10,2013-08-13 08:37:00,
2013-08-13 04:52:00,69.7,69.0,29.86,NE,50,2.0,4.0,99,0.00,,,0.00,weatherlink.com 1.10,2013-08-13 08:52:00,
2013-08-13 05:07:00,69.8,70.0,29.86,NE,50,0.0,3.0,99,0.00,,,0.00,weatherlink.com 1.10,2013-08-13 09:07:00,
2013-08-13 05:22:00,70.0,70.0,29.86,NE,50,0.0,1.0,99,0.00,,,0.00,weatherlink.com 1.10,2013-08-13 09:22:00,
2013-08-13 05:37:00,70.0,70.0,29.86,NE,50,0.0,2.0,99,0.00,,,0.00,weatherlink.com 1.10,2013-08-13 09:37:00,
2013-08-13 05:52:00,70.0,70.0,29.86,NE,50,0.0,1.0,99,0.00,,,0.00,weatherlink.com 1.10,2013-08-13 09:52:00,
2013-08-13 06:07:00,70.1,70.0,29.85,NE,50,1.0,2.0,99,0.00,,,0.00,weatherlink.com 1.10,2013-08-13 10:07:00,
2013-08-13 06:22:00,69.7,69.0,29.84,SE,127,0.0,4.0,99,0.00,,,0.00,weatherlink.com 1.10,2013-08-13 10:22:00,
2013-08-13 06:37:00,69.8,70.0,29.86,NNE,12,2.0,3.0,99,0.00,,,0.00,weatherlink.com 1.10,2013-08-13 10:37:00,
2013-08-13 06:52:00,69.6,69.0,29.86,WNW,303,2.0,4.0,99,0.01,,,0.01,weatherlink.com 1.10,2013-08-13 10:52:00,
2013-08-13 07:07:00,69.4,69.0,29.85,SW,231,0.0,3.0,99,0.01,,,0.01,weatherlink.com 1.10,2013-08-13 11:07:00,
2013-08-13 07:22:00,69.4,69.0,29.85,NW,308,0.0,2.0,99,0.01,,,0.01,weatherlink.com 1.10,2013-08-13 11:22:00,
2013-08-13 07:37:00,69.6,69.0,29.85,NW,308,0.0,2.0,99,0.01,,,0.01,weatherlink.com 1.10,2013-08-13 11:37:00,
2013-08-13 07:52:00,69.7,69.0,29.85,NW,308,0.0,1.0,99,0.00,,,0.01,weatherlink.com 1.10,2013-08-13 11:52:00,
2013-08-13 08:07:00,70.0,70.0,29.86,NW,308,0.0,2.0,100,0.00,,,0.01,weatherlink.com 1.10,2013-08-13 12:07:00,
2013-08-13 08:22:00,70.7,71.0,29.87,NW,308,1.0,3.0,100,0.00,,,0.01,weatherlink.com 1.10,2013-08-13 12:22:00,
2013-08-13 08:37:00,71.3,71.0,29.87,NW,307,1.0,1.0,99,0.00,,,0.01,weatherlink.com 1.10,2013-08-13 12:37:00,
2013-08-13 08:52:00,72.1,72.0,29.88,WNW,295,0.0,4.0,98,0.00,,,0.01,weatherlink.com 1.10,2013-08-13 12:52:00,
2013-08-13 09:07:00,72.9,72.0,29.88,West,268,3.0,4.0,97,0.00,,,0.01,weatherlink.com 1.10,2013-08-13 13:07:00,
2013-08-13 09:22:00,73.7,72.0,29.89,WNW,294,1.0,4.0,94,0.00,,,0.01,weatherlink.com 1.10,2013-08-13 13:22:00,
2013-08-13 09:37:00,73.9,72.0,29.88,WNW,301,1.0,3.0,94,0.00,,,0.01,weatherlink.com 1.10,2013-08-13 13:37:00,
2013-08-13 09:52:00,73.9,72.0,29.88,NW,320,1.0,2.0,94,0.00,,,0.01,weatherlink.com 1.10,2013-08-13 13:52:00,
2013-08-13 10:07:00,74.1,73.0,29.87,SW,218,2.0,4.0,95,0.00,,,0.01,weatherlink.com 1.10,2013-08-13 14:07:00,
2013-08-13 10:22:00,74.1,73.0,29.87,SW,218,2.0,3.0,95,0.00,,,0.01,weatherlink.com 1.10,2013-08-13 14:22:00,
2013-08-13 10:37:00,74.3,73.0,29.87,West,278,2.0,4.0,95,0.00,,,0.01,weatherlink.com 1.10,2013-08-13 14:37:00,
2013-08-13 10:52:00,74.8,73.0,29.87,West,260,2.0,3.0,93,0.00,,,0.01,weatherlink.com 1.10,2013-08-13 14:52:00,
2013-08-13 11:07:00,75.7,73.0,29.88,West,280,2.0,4.0,92,0.00,,,0.01,weatherlink.com 1.10,2013-08-13 15:07:00,
2013-08-13 11:22:00,76.9,74.0,29.88,SW,220,2.0,4.0,90,0.00,,,0.01,weatherlink.com 1.10,2013-08-13 15:22:00,
2013-08-13 11:38:00,78.1,74.0,29.88,WSW,245,2.0,6.0,88,0.00,,,0.01,weatherlink.com 1.10,2013-08-13 15:38:00,
2013-08-13 11:53:00,78.4,74.0,29.88,WSW,251,3.0,6.0,87,0.00,,,0.01,weatherlink.com 1.10,2013-08-13 15:53:00,
2013-08-13 12:08:00,78.1,74.0,29.88,WNW,299,3.0,8.0,87,0.00,,,0.01,weatherlink.com 1.10,2013-08-13 16:08:00,
2013-08-13 12:23:00,78.4,74.0,29.87,WNW,291,5.0,5.0,85,0.00,,,0.01,weatherlink.com 1.10,2013-08-13 16:23:00,
2013-08-13 12:38:00,77.6,74.0,29.86,SW,229,2.0,6.0,88,0.00,,,0.01,weatherlink.com 1.10,2013-08-13 16:38:00,
2013-08-13 12:53:00,78.0,74.0,29.86,West,264,3.0,6.0,88,0.00,,,0.01,weatherlink.com 1.10,2013-08-13 16:53:00,
2013-08-13 13:08:00,78.5,73.0,29.85,WNW,284,4.0,8.0,84,0.00,,,0.01,weatherlink.com 1.10,2013-08-13 17:08:00,
2013-08-13 13:23:00,79.2,73.0,29.85,NW,320,3.0,8.0,82,0.00,,,0.01,weatherlink.com 1.10,2013-08-13 17:23:00,
2013-08-13 13:38:00,79.6,74.0,29.84,WNW,295,4.0,8.0,82,0.00,,,0.01,weatherlink.com 1.10,2013-08-13 17:38:00,
2013-08-13 13:53:00,80.0,73.0,29.84,NW,315,5.0,7.0,80,0.00,,,0.01,weatherlink.com 1.10,2013-08-13 17:53:00,
2013-08-13 14:08:00,80.5,74.0,29.83,SW,231,5.0,9.0,80,0.00,,,0.01,weatherlink.com 1.10,2013-08-13 18:08:00,
2013-08-13 14:23:00,82.0,74.0,29.83,West,262,2.0,9.0,76,0.00,,,0.01,weatherlink.com 1.10,2013-08-13 18:23:00,
2013-08-13 14:38:00,82.4,74.0,29.83,SSW,208,10.0,11.0,76,0.00,,,0.01,weatherlink.com 1.10,2013-08-13 18:38:00,
2013-08-13 14:53:00,82.8,74.0,29.83,NNW,337,9.0,10.0,75,0.00,,,0.01,weatherlink.com 1.10,2013-08-13 18:53:00,
2013-08-13 15:08:00,82.6,75.0,29.82,West,266,3.0,10.0,77,0.00,,,0.01,weatherlink.com 1.10,2013-08-13 19:08:00,
2013-08-13 15:23:00,83.2,76.0,29.81,SW,217,7.0,7.0,79,0.00,,,0.01,weatherlink.com 1.10,2013-08-13 19:23:00,
2013-08-13 15:38:00,83.8,75.0,29.80,WSW,251,1.0,7.0,74,0.00,,,0.01,weatherlink.com 1.10,2013-08-13 19:38:00,
2013-08-13 15:53:00,83.3,75.0,29.80,WSW,247,4.0,6.0,77,0.00,,,0.01,weatherlink.com 1.10,2013-08-13 19:53:00,
2013-08-13 16:08:00,83.3,75.0,29.79,WSW,237,2.0,6.0,76,0.00,,,0.01,weatherlink.com 1.10,2013-08-13 20:08:00,
2013-08-13 16:23:00,84.1,76.0,29.78,SW,217,1.0,5.0,76,0.00,,,0.01,weatherlink.com 1.10,2013-08-13 20:23:00,
2013-08-13 16:38:00,85.4,74.0,29.78,SW,232,1.0,8.0,69,0.00,,,0.01,weatherlink.com 1.10,2013-08-13 20:38:00,
2013-08-13 16:53:00,84.3,74.0,29.78,WSW,241,3.0,7.0,70,0.00,,,0.01,weatherlink.com 1.10,2013-08-13 20:53:00,
2013-08-13 17:08:00,84.4,77.0,29.78,South,181,4.0,8.0,77,0.00,,,0.01,weatherlink.com 1.10,2013-08-13 21:08:00,
2013-08-13 17:23:00,83.1,75.0,29.78,West,264,4.0,7.0,77,0.00,,,0.01,weatherlink.com 1.10,2013-08-13 21:23:00,
2013-08-13 17:38:00,82.5,74.0,29.79,WSW,237,1.0,4.0,76,0.00,,,0.01,weatherlink.com 1.10,2013-08-13 21:38:00,
2013-08-13 17:53:00,83.7,75.0,29.78,NNW,337,2.0,4.0,75,0.00,,,0.01,weatherlink.com 1.10,2013-08-13 21:53:00,
2013-08-13 18:08:00,85.0,76.0,29.78,NW,317,2.0,6.0,75,0.00,,,0.01,weatherlink.com 1.10,2013-08-13 22:08:00,
2013-08-13 18:23:00,86.3,76.0,29.78,NE,44,2.0,4.0,71,0.00,,,0.01,weatherlink.com 1.10,2013-08-13 22:23:00,
2013-08-13 18:38:00,86.8,71.0,29.79,SSE,147,2.0,3.0,59,0.00,,,0.01,weatherlink.com 1.10,2013-08-13 22:38:00,
2013-08-13 18:53:00,87.3,71.0,29.79,East,91,0.0,3.0,59,0.00,,,0.01,weatherlink.com 1.10,2013-08-13 22:53:00,
2013-08-13 19:08:00,85.0,72.0,29.79,NE,37,0.0,6.0,65,0.00,,,0.01,weatherlink.com 1.10,2013-08-13 23:08:00,
2013-08-13 19:38:00,82.8,72.0,29.79,ENE,68,0.0,3.0,69,0.00,,,0.01,weatherlink.com 1.10,2013-08-13 23:38:00,
2013-08-13 19:53:00,81.1,73.0,29.80,SE,141,0.0,3.0,77,0.00,,,0.01,weatherlink.com 1.10,2013-08-13 23:53:00,
2013-08-13 20:08:00,80.0,72.0,29.81,ESE,118,3.0,3.0,77,0.00,,,0.01,weatherlink.com 1.10,2013-08-14 00:08:00,
2013-08-13 20:23:00,78.4,71.0,29.81,ESE,119,0.0,2.0,79,0.00,,,0.01,weatherlink.com 1.10,2013-08-14 00:23:00,
2013-08-13 20:38:00,78.5,70.0,29.82,East,79,0.0,3.0,76,0.00,,,0.01,weatherlink.com 1.10,2013-08-14 00:38:00,
2013-08-13 20:53:00,78.2,70.0,29.82,East,79,0.0,1.0,77,0.00,,,0.01,weatherlink.com 1.10,2013-08-14 00:53:00,
2013-08-13 21:08:00,77.0,70.0,29.82,ENE,78,0.0,1.0,80,0.00,,,0.01,weatherlink.com 1.10,2013-08-14 01:08:00,
2013-08-13 21:24:00,76.0,71.0,29.82,SE,133,0.0,3.0,84,0.00,,,0.01,weatherlink.com 1.10,2013-08-14 01:24:00,
2013-08-13 21:39:00,76.0,71.0,29.83,SE,135,1.0,3.0,83,0.00,,,0.01,weatherlink.com 1.10,2013-08-14 01:39:00,
2013-08-13 21:54:00,75.3,72.0,29.84,SE,135,0.0,2.0,88,0.00,,,0.01,weatherlink.com 1.10,2013-08-14 01:54:00,
2013-08-13 22:09:00,74.9,72.0,29.84,SE,135,0.0,1.0,89,0.00,,,0.01,weatherlink.com 1.10,2013-08-14 02:09:00,
2013-08-13 22:24:00,74.3,72.0,29.84,SE,139,1.0,3.0,91,0.00,,,0.01,weatherlink.com 1.10,2013-08-14 02:24:00,
2013-08-13 22:39:00,74.0,72.0,29.84,SE,139,0.0,1.0,92,0.00,,,0.01,weatherlink.com 1.10,2013-08-14 02:39:00,
2013-08-13 22:54:00,74.1,72.0,29.83,SE,139,0.0,0.0,92,0.00,,,0.01,weatherlink.com 1.10,2013-08-14 02:54:00,
2013-08-13 23:09:00,73.9,72.0,29.84,SE,139,0.0,2.0,92,0.00,,,0.01,weatherlink.com 1.10,2013-08-14 03:09:00,
2013-08-13 23:24:00,73.8,72.0,29.84,SE,139,0.0,1.0,93,0.00,,,0.01,weatherlink.com 1.10,2013-08-14 03:24:00,
2013-08-13 23:39:00,73.7,72.0,29.84,SE,139,0.0,1.0,93,0.00,,,0.01,weatherlink.com 1.10,2013-08-14 03:39:00,
2013-08-13 23:54:00,73.7,72.0,29.84,SE,139,0.0,1.0,93,0.00,,,0.01,weatherlink.com 1.10,2013-08-14 03:54:00,